sensor_id;sensor_type;location;lat;lon;timestamp;P1;durP1;ratioP1;P2;durP2;ratioP2
3002;SDS011;1511;51.326;12.344;2023-10-19T00:01:15;12.67;;;10.47;;
3002;SDS011;1511;51.326;12.344;2023-10-19T00:03:44;14.17;;;11.90;;
3002;SDS011;1511;51.326;12.344;2023-10-19T00:06:10;13.30;;;11.73;;
3002;SDS011;1511;51.326;12.344;2023-10-19T00:08:39;11.93;;;10.80;;
3002;SDS011;1511;51.326;12.344;2023-10-19T00:11:07;13.80;;;11.87;;
3002;SDS011;1511;51.326;12.344;2023-10-19T00:13:52;12.00;;;10.90;;
3002;SDS011;1511;51.326;12.344;2023-10-19T00:16:22;11.37;;;10.17;;
3002;SDS011;1511;51.326;12.344;2023-10-19T00:18:56;12.50;;;11.30;;
3002;SDS011;1511;51.326;12.344;2023-10-19T00:21:25;14.00;;;11.20;;
3002;SDS011;1511;51.326;12.344;2023-10-19T00:23:54;14.67;;;10.37;;
3002;SDS011;1511;51.326;12.344;2023-10-19T00:26:22;15.00;;;10.57;;
3002;SDS011;1511;51.326;12.344;2023-10-19T00:28:54;16.10;;;11.17;;
3002;SDS011;1511;51.326;12.344;2023-10-19T00:31:20;11.70;;;10.50;;
3002;SDS011;1511;51.326;12.344;2023-10-19T00:33:47;11.83;;;10.63;;
3002;SDS011;1511;51.326;12.344;2023-10-19T00:36:16;12.13;;;10.87;;
3002;SDS011;1511;51.326;12.344;2023-10-19T00:38:45;11.70;;;10.47;;
3002;SDS011;1511;51.326;12.344;2023-10-19T00:41:15;15.20;;;11.53;;
3002;SDS011;1511;51.326;12.344;2023-10-19T00:43:49;14.50;;;11.70;;
3002;SDS011;1511;51.326;12.344;2023-10-19T00:46:24;11.10;;;10.10;;
3002;SDS011;1511;51.326;12.344;2023-10-19T00:48:57;13.67;;;10.33;;
3002;SDS011;1511;51.326;12.344;2023-10-19T00:51:31;12.07;;;10.80;;
3002;SDS011;1511;51.326;12.344;2023-10-19T00:54:30;12.50;;;11.30;;
3002;SDS011;1511;51.326;12.344;2023-10-19T00:57:00;16.10;;;11.57;;
3002;SDS011;1511;51.326;12.344;2023-10-19T00:59:37;13.97;;;10.53;;
3002;SDS011;1511;51.326;12.344;2023-10-19T01:02:16;10.73;;;9.73;;
3002;SDS011;1511;51.326;12.344;2023-10-19T01:04:46;10.93;;;9.60;;
3002;SDS011;1511;51.326;12.344;2023-10-19T01:07:30;12.40;;;11.10;;
3002;SDS011;1511;51.326;12.344;2023-10-19T01:10:05;13.73;;;11.63;;
3002;SDS011;1511;51.326;12.344;2023-10-19T01:12:53;11.87;;;10.60;;
3002;SDS011;1511;51.326;12.344;2023-10-19T01:15:20;13.90;;;10.33;;
3002;SDS011;1511;51.326;12.344;2023-10-19T01:17:53;10.47;;;9.57;;
3002;SDS011;1511;51.326;12.344;2023-10-19T01:20:24;11.10;;;9.97;;
3002;SDS011;1511;51.326;12.344;2023-10-19T01:23:13;11.43;;;10.20;;
3002;SDS011;1511;51.326;12.344;2023-10-19T01:25:52;12.20;;;10.03;;
3002;SDS011;1511;51.326;12.344;2023-10-19T01:28:33;13.03;;;10.53;;
3002;SDS011;1511;51.326;12.344;2023-10-19T01:31:18;14.73;;;10.77;;
3002;SDS011;1511;51.326;12.344;2023-10-19T01:33:55;11.47;;;10.27;;
3002;SDS011;1511;51.326;12.344;2023-10-19T01:36:26;12.27;;;10.97;;
3002;SDS011;1511;51.326;12.344;2023-10-19T01:38:53;11.47;;;10.27;;
3002;SDS011;1511;51.326;12.344;2023-10-19T01:41:35;12.50;;;10.50;;
3002;SDS011;1511;51.326;12.344;2023-10-19T01:44:06;9.93;;;8.93;;
3002;SDS011;1511;51.326;12.344;2023-10-19T01:46:32;10.27;;;9.27;;
3002;SDS011;1511;51.326;12.344;2023-10-19T01:49:03;11.23;;;10.10;;
3002;SDS011;1511;51.326;12.344;2023-10-19T01:51:33;11.27;;;10.10;;
3002;SDS011;1511;51.326;12.344;2023-10-19T01:54:03;10.67;;;9.63;;
3002;SDS011;1511;51.326;12.344;2023-10-19T01:56:31;11.47;;;10.37;;
3002;SDS011;1511;51.326;12.344;2023-10-19T01:59:01;10.70;;;9.70;;
3002;SDS011;1511;51.326;12.344;2023-10-19T02:01:34;11.20;;;10.00;;
3002;SDS011;1511;51.326;12.344;2023-10-19T02:04:07;11.43;;;10.23;;
3002;SDS011;1511;51.326;12.344;2023-10-19T02:06:36;14.73;;;9.63;;
3002;SDS011;1511;51.326;12.344;2023-10-19T02:09:09;11.77;;;9.90;;
3002;SDS011;1511;51.326;12.344;2023-10-19T02:11:49;12.23;;;11.10;;
3002;SDS011;1511;51.326;12.344;2023-10-19T02:14:18;10.83;;;9.73;;
3002;SDS011;1511;51.326;12.344;2023-10-19T02:16:45;10.53;;;9.50;;
3002;SDS011;1511;51.326;12.344;2023-10-19T02:19:18;12.20;;;11.00;;
3002;SDS011;1511;51.326;12.344;2023-10-19T02:21:47;14.47;;;9.83;;
3002;SDS011;1511;51.326;12.344;2023-10-19T02:24:20;11.13;;;10.07;;
3002;SDS011;1511;51.326;12.344;2023-10-19T02:26:49;15.43;;;12.67;;
3002;SDS011;1511;51.326;12.344;2023-10-19T02:29:19;14.17;;;11.03;;
3002;SDS011;1511;51.326;12.344;2023-10-19T02:31:53;13.50;;;10.87;;
3002;SDS011;1511;51.326;12.344;2023-10-19T02:34:20;13.37;;;11.87;;
3002;SDS011;1511;51.326;12.344;2023-10-19T02:36:48;13.50;;;11.23;;
3002;SDS011;1511;51.326;12.344;2023-10-19T02:39:14;13.30;;;11.20;;
3002;SDS011;1511;51.326;12.344;2023-10-19T02:41:46;12.90;;;10.83;;
3002;SDS011;1511;51.326;12.344;2023-10-19T02:44:14;12.30;;;11.00;;
3002;SDS011;1511;51.326;12.344;2023-10-19T02:46:50;15.37;;;11.33;;
3002;SDS011;1511;51.326;12.344;2023-10-19T02:49:33;16.13;;;12.90;;
3002;SDS011;1511;51.326;12.344;2023-10-19T02:52:04;14.60;;;11.87;;
3002;SDS011;1511;51.326;12.344;2023-10-19T02:54:33;14.03;;;12.57;;
3002;SDS011;1511;51.326;12.344;2023-10-19T02:57:01;13.30;;;11.90;;
3002;SDS011;1511;51.326;12.344;2023-10-19T02:59:28;14.53;;;11.50;;
3002;SDS011;1511;51.326;12.344;2023-10-19T03:01:55;15.37;;;12.07;;
3002;SDS011;1511;51.326;12.344;2023-10-19T03:04:32;15.10;;;12.60;;
3002;SDS011;1511;51.326;12.344;2023-10-19T03:07:03;12.60;;;10.80;;
3002;SDS011;1511;51.326;12.344;2023-10-19T03:09:30;13.10;;;11.60;;
3002;SDS011;1511;51.326;12.344;2023-10-19T03:12:02;15.87;;;13.67;;
3002;SDS011;1511;51.326;12.344;2023-10-19T03:14:31;15.03;;;12.67;;
3002;SDS011;1511;51.326;12.344;2023-10-19T03:16:58;14.33;;;12.70;;
3002;SDS011;1511;51.326;12.344;2023-10-19T03:19:25;14.40;;;12.90;;
3002;SDS011;1511;51.326;12.344;2023-10-19T03:21:51;13.27;;;11.73;;
3002;SDS011;1511;51.326;12.344;2023-10-19T03:24:18;15.70;;;13.40;;
3002;SDS011;1511;51.326;12.344;2023-10-19T03:27:02;12.97;;;11.67;;
3002;SDS011;1511;51.326;12.344;2023-10-19T03:29:49;15.47;;;13.73;;
3002;SDS011;1511;51.326;12.344;2023-10-19T03:32:20;15.13;;;12.73;;
3002;SDS011;1511;51.326;12.344;2023-10-19T03:34:51;14.47;;;13.10;;
3002;SDS011;1511;51.326;12.344;2023-10-19T03:37:21;14.30;;;12.50;;
3002;SDS011;1511;51.326;12.344;2023-10-19T03:39:49;13.47;;;12.07;;
3002;SDS011;1511;51.326;12.344;2023-10-19T03:42:16;13.80;;;12.40;;
3002;SDS011;1511;51.326;12.344;2023-10-19T03:44:49;13.80;;;12.33;;
3002;SDS011;1511;51.326;12.344;2023-10-19T03:47:20;15.00;;;12.33;;
3002;SDS011;1511;51.326;12.344;2023-10-19T03:49:50;12.47;;;11.20;;
3002;SDS011;1511;51.326;12.344;2023-10-19T03:52:16;13.13;;;11.23;;
3002;SDS011;1511;51.326;12.344;2023-10-19T03:54:42;15.77;;;12.30;;
3002;SDS011;1511;51.326;12.344;2023-10-19T03:57:10;14.17;;;12.47;;
3002;SDS011;1511;51.326;12.344;2023-10-19T03:59:41;14.47;;;11.37;;
3002;SDS011;1511;51.326;12.344;2023-10-19T04:02:07;13.97;;;11.20;;
3002;SDS011;1511;51.326;12.344;2023-10-19T04:04:41;14.30;;;12.80;;
3002;SDS011;1511;51.326;12.344;2023-10-19T04:07:11;14.83;;;12.60;;
3002;SDS011;1511;51.326;12.344;2023-10-19T04:09:48;14.20;;;10.80;;
3002;SDS011;1511;51.326;12.344;2023-10-19T04:12:30;14.10;;;12.10;;
3002;SDS011;1511;51.326;12.344;2023-10-19T04:14:56;15.37;;;10.73;;
3002;SDS011;1511;51.326;12.344;2023-10-19T04:17:42;13.77;;;11.80;;
3002;SDS011;1511;51.326;12.344;2023-10-19T04:20:12;13.00;;;11.13;;
3002;SDS011;1511;51.326;12.344;2023-10-19T04:22:49;13.80;;;10.97;;
3002;SDS011;1511;51.326;12.344;2023-10-19T04:25:18;15.00;;;11.23;;
3002;SDS011;1511;51.326;12.344;2023-10-19T04:27:45;14.97;;;13.17;;
3002;SDS011;1511;51.326;12.344;2023-10-19T04:30:14;15.00;;;13.10;;
3002;SDS011;1511;51.326;12.344;2023-10-19T04:32:43;15.03;;;12.47;;
3002;SDS011;1511;51.326;12.344;2023-10-19T04:35:13;13.33;;;11.57;;
3002;SDS011;1511;51.326;12.344;2023-10-19T04:37:46;15.83;;;12.57;;
3002;SDS011;1511;51.326;12.344;2023-10-19T04:40:15;15.60;;;12.43;;
3002;SDS011;1511;51.326;12.344;2023-10-19T04:42:41;13.97;;;11.90;;
3002;SDS011;1511;51.326;12.344;2023-10-19T04:45:07;13.13;;;11.07;;
3002;SDS011;1511;51.326;12.344;2023-10-19T04:47:34;19.17;;;12.90;;
3002;SDS011;1511;51.326;12.344;2023-10-19T04:50:03;15.23;;;12.50;;
3002;SDS011;1511;51.326;12.344;2023-10-19T04:52:33;16.27;;;12.70;;
3002;SDS011;1511;51.326;12.344;2023-10-19T04:54:59;14.23;;;11.73;;
3002;SDS011;1511;51.326;12.344;2023-10-19T04:57:28;15.33;;;11.63;;
3002;SDS011;1511;51.326;12.344;2023-10-19T04:59:57;15.57;;;13.10;;
3002;SDS011;1511;51.326;12.344;2023-10-19T05:02:25;14.03;;;12.17;;
3002;SDS011;1511;51.326;12.344;2023-10-19T05:04:54;15.00;;;13.10;;
3002;SDS011;1511;51.326;12.344;2023-10-19T05:07:20;14.73;;;12.50;;
3002;SDS011;1511;51.326;12.344;2023-10-19T05:09:48;17.00;;;13.63;;
3002;SDS011;1511;51.326;12.344;2023-10-19T05:12:14;17.40;;;14.00;;
3002;SDS011;1511;51.326;12.344;2023-10-19T05:14:43;14.87;;;12.20;;
3002;SDS011;1511;51.326;12.344;2023-10-19T05:17:10;15.47;;;12.03;;
3002;SDS011;1511;51.326;12.344;2023-10-19T05:19:37;18.77;;;13.90;;
3002;SDS011;1511;51.326;12.344;2023-10-19T05:22:06;16.80;;;13.13;;
3002;SDS011;1511;51.326;12.344;2023-10-19T05:24:37;16.90;;;13.57;;
3002;SDS011;1511;51.326;12.344;2023-10-19T05:27:02;16.10;;;13.53;;
3002;SDS011;1511;51.326;12.344;2023-10-19T05:29:30;16.37;;;12.47;;
3002;SDS011;1511;51.326;12.344;2023-10-19T05:32:01;15.23;;;13.60;;
3002;SDS011;1511;51.326;12.344;2023-10-19T05:34:28;16.80;;;13.17;;
3002;SDS011;1511;51.326;12.344;2023-10-19T05:36:54;15.10;;;12.87;;
3002;SDS011;1511;51.326;12.344;2023-10-19T05:39:23;20.50;;;14.33;;
3002;SDS011;1511;51.326;12.344;2023-10-19T05:41:55;17.17;;;14.20;;
3002;SDS011;1511;51.326;12.344;2023-10-19T05:44:26;17.80;;;12.43;;
3002;SDS011;1511;51.326;12.344;2023-10-19T05:46:55;15.37;;;13.40;;
3002;SDS011;1511;51.326;12.344;2023-10-19T05:49:21;14.93;;;13.30;;
3002;SDS011;1511;51.326;12.344;2023-10-19T05:51:50;18.07;;;13.53;;
3002;SDS011;1511;51.326;12.344;2023-10-19T05:54:17;16.20;;;12.60;;
3002;SDS011;1511;51.326;12.344;2023-10-19T05:56:49;16.33;;;12.93;;
3002;SDS011;1511;51.326;12.344;2023-10-19T05:59:15;20.80;;;12.90;;
3002;SDS011;1511;51.326;12.344;2023-10-19T06:01:44;18.83;;;13.20;;
3002;SDS011;1511;51.326;12.344;2023-10-19T06:04:13;15.93;;;12.90;;
3002;SDS011;1511;51.326;12.344;2023-10-19T06:06:41;16.80;;;12.97;;
3002;SDS011;1511;51.326;12.344;2023-10-19T06:09:07;16.27;;;13.13;;
3002;SDS011;1511;51.326;12.344;2023-10-19T06:11:34;16.87;;;14.30;;
3002;SDS011;1511;51.326;12.344;2023-10-19T06:14:03;16.27;;;12.73;;
3002;SDS011;1511;51.326;12.344;2023-10-19T06:16:32;14.37;;;12.83;;
3002;SDS011;1511;51.326;12.344;2023-10-19T06:18:59;17.37;;;13.30;;
3002;SDS011;1511;51.326;12.344;2023-10-19T06:21:25;17.40;;;12.83;;
3002;SDS011;1511;51.326;12.344;2023-10-19T06:23:53;13.83;;;12.20;;
3002;SDS011;1511;51.326;12.344;2023-10-19T06:26:21;16.27;;;13.90;;
3002;SDS011;1511;51.326;12.344;2023-10-19T06:28:47;15.40;;;12.80;;
3002;SDS011;1511;51.326;12.344;2023-10-19T06:31:24;14.70;;;12.53;;
3002;SDS011;1511;51.326;12.344;2023-10-19T06:33:51;16.00;;;13.47;;
3002;SDS011;1511;51.326;12.344;2023-10-19T06:36:17;15.00;;;12.93;;
3002;SDS011;1511;51.326;12.344;2023-10-19T06:38:44;14.37;;;11.77;;
3002;SDS011;1511;51.326;12.344;2023-10-19T06:41:12;14.83;;;12.13;;
3002;SDS011;1511;51.326;12.344;2023-10-19T06:43:43;14.05;;;11.55;;
3002;SDS011;1511;51.326;12.344;2023-10-19T06:46:12;19.53;;;6.90;;
3002;SDS011;1511;51.326;12.344;2023-10-19T06:48:39;12.07;;;8.63;;
3002;SDS011;1511;51.326;12.344;2023-10-19T06:51:07;12.27;;;9.93;;
3002;SDS011;1511;51.326;12.344;2023-10-19T06:53:36;13.80;;;7.80;;
3002;SDS011;1511;51.326;12.344;2023-10-19T06:56:02;13.87;;;6.67;;
3002;SDS011;1511;51.326;12.344;2023-10-19T06:58:29;9.43;;;7.00;;
3002;SDS011;1511;51.326;12.344;2023-10-19T07:00:54;9.87;;;8.67;;
3002;SDS011;1511;51.326;12.344;2023-10-19T07:03:25;13.20;;;8.47;;
3002;SDS011;1511;51.326;12.344;2023-10-19T07:05:53;9.43;;;8.40;;
3002;SDS011;1511;51.326;12.344;2023-10-19T07:08:19;9.80;;;7.50;;
3002;SDS011;1511;51.326;12.344;2023-10-19T07:10:48;11.10;;;10.00;;
3002;SDS011;1511;51.326;12.344;2023-10-19T07:13:14;13.27;;;11.63;;
3002;SDS011;1511;51.326;12.344;2023-10-19T07:15:48;11.90;;;10.40;;
3002;SDS011;1511;51.326;12.344;2023-10-19T07:18:14;14.20;;;11.63;;
3002;SDS011;1511;51.326;12.344;2023-10-19T07:20:42;12.40;;;11.20;;
3002;SDS011;1511;51.326;12.344;2023-10-19T07:23:13;14.70;;;11.10;;
3002;SDS011;1511;51.326;12.344;2023-10-19T07:25:51;18.40;;;12.00;;
3002;SDS011;1511;51.326;12.344;2023-10-19T07:28:21;11.70;;;10.20;;
3002;SDS011;1511;51.326;12.344;2023-10-19T07:30:52;12.83;;;10.50;;
3002;SDS011;1511;51.326;12.344;2023-10-19T07:33:26;16.83;;;12.40;;
3002;SDS011;1511;51.326;12.344;2023-10-19T07:35:53;15.63;;;13.00;;
3002;SDS011;1511;51.326;12.344;2023-10-19T07:38:24;12.60;;;11.30;;
3002;SDS011;1511;51.326;12.344;2023-10-19T07:40:50;15.67;;;12.97;;
3002;SDS011;1511;51.326;12.344;2023-10-19T07:43:19;16.37;;;13.50;;
3002;SDS011;1511;51.326;12.344;2023-10-19T07:45:46;15.40;;;12.30;;
3002;SDS011;1511;51.326;12.344;2023-10-19T07:48:13;13.23;;;10.97;;
3002;SDS011;1511;51.326;12.344;2023-10-19T07:50:39;13.13;;;11.50;;
3002;SDS011;1511;51.326;12.344;2023-10-19T07:53:06;14.87;;;13.13;;
3002;SDS011;1511;51.326;12.344;2023-10-19T07:55:32;13.90;;;12.27;;
3002;SDS011;1511;51.326;12.344;2023-10-19T07:57:58;13.87;;;12.37;;
3002;SDS011;1511;51.326;12.344;2023-10-19T08:00:34;16.33;;;12.40;;
3002;SDS011;1511;51.326;12.344;2023-10-19T08:03:00;16.47;;;13.33;;
3002;SDS011;1511;51.326;12.344;2023-10-19T08:05:30;14.80;;;12.23;;
3002;SDS011;1511;51.326;12.344;2023-10-19T08:07:56;15.13;;;13.53;;
3002;SDS011;1511;51.326;12.344;2023-10-19T08:10:23;13.40;;;10.77;;
3002;SDS011;1511;51.326;12.344;2023-10-19T08:12:51;14.47;;;12.03;;
3002;SDS011;1511;51.326;12.344;2023-10-19T08:15:20;13.33;;;11.97;;
3002;SDS011;1511;51.326;12.344;2023-10-19T08:17:48;15.37;;;12.60;;
3002;SDS011;1511;51.326;12.344;2023-10-19T08:20:18;13.70;;;11.97;;
3002;SDS011;1511;51.326;12.344;2023-10-19T08:22:59;14.93;;;11.97;;
3002;SDS011;1511;51.326;12.344;2023-10-19T08:25:26;14.03;;;12.53;;
3002;SDS011;1511;51.326;12.344;2023-10-19T08:27:52;15.10;;;13.10;;
3002;SDS011;1511;51.326;12.344;2023-10-19T08:30:22;12.90;;;11.60;;
3002;SDS011;1511;51.326;12.344;2023-10-19T08:32:49;16.00;;;12.53;;
3002;SDS011;1511;51.326;12.344;2023-10-19T08:35:17;15.30;;;12.80;;
3002;SDS011;1511;51.326;12.344;2023-10-19T08:37:56;14.53;;;12.93;;
3002;SDS011;1511;51.326;12.344;2023-10-19T08:40:27;16.73;;;13.50;;
3002;SDS011;1511;51.326;12.344;2023-10-19T08:42:53;14.20;;;12.00;;
3002;SDS011;1511;51.326;12.344;2023-10-19T08:45:20;13.17;;;11.77;;
3002;SDS011;1511;51.326;12.344;2023-10-19T08:47:59;17.20;;;14.00;;
3002;SDS011;1511;51.326;12.344;2023-10-19T08:50:30;13.03;;;11.57;;
3002;SDS011;1511;51.326;12.344;2023-10-19T08:53:01;13.93;;;12.00;;
3002;SDS011;1511;51.326;12.344;2023-10-19T08:55:31;15.30;;;13.70;;
3002;SDS011;1511;51.326;12.344;2023-10-19T08:58:00;15.63;;;13.13;;
3002;SDS011;1511;51.326;12.344;2023-10-19T09:00:26;15.20;;;13.60;;
3002;SDS011;1511;51.326;12.344;2023-10-19T09:03:09;17.50;;;13.17;;
3002;SDS011;1511;51.326;12.344;2023-10-19T09:05:38;16.40;;;13.77;;
3002;SDS011;1511;51.326;12.344;2023-10-19T09:08:05;17.60;;;13.87;;
3002;SDS011;1511;51.326;12.344;2023-10-19T09:10:37;15.70;;;13.63;;
3002;SDS011;1511;51.326;12.344;2023-10-19T09:13:05;15.10;;;12.30;;
3002;SDS011;1511;51.326;12.344;2023-10-19T09:15:37;13.60;;;12.30;;
3002;SDS011;1511;51.326;12.344;2023-10-19T09:18:18;14.57;;;12.93;;
3002;SDS011;1511;51.326;12.344;2023-10-19T09:20:50;16.50;;;12.87;;
3002;SDS011;1511;51.326;12.344;2023-10-19T09:23:18;15.30;;;13.70;;
3002;SDS011;1511;51.326;12.344;2023-10-19T09:25:46;16.27;;;13.60;;
3002;SDS011;1511;51.326;12.344;2023-10-19T09:28:17;15.03;;;12.83;;
3002;SDS011;1511;51.326;12.344;2023-10-19T09:30:44;14.93;;;13.30;;
3002;SDS011;1511;51.326;12.344;2023-10-19T09:33:12;14.97;;;13.27;;
3002;SDS011;1511;51.326;12.344;2023-10-19T09:35:40;14.70;;;13.10;;
3002;SDS011;1511;51.326;12.344;2023-10-19T09:38:08;15.67;;;12.60;;
3002;SDS011;1511;51.326;12.344;2023-10-19T09:40:34;17.10;;;13.93;;
3002;SDS011;1511;51.326;12.344;2023-10-19T09:43:02;15.87;;;14.20;;
3002;SDS011;1511;51.326;12.344;2023-10-19T09:45:33;14.77;;;13.37;;
3002;SDS011;1511;51.326;12.344;2023-10-19T09:48:16;14.63;;;13.07;;
3002;SDS011;1511;51.326;12.344;2023-10-19T09:50:45;14.90;;;12.27;;
3002;SDS011;1511;51.326;12.344;2023-10-19T09:53:22;17.73;;;13.87;;
3002;SDS011;1511;51.326;12.344;2023-10-19T09:55:54;14.30;;;12.90;;
3002;SDS011;1511;51.326;12.344;2023-10-19T09:58:26;13.50;;;12.10;;
3002;SDS011;1511;51.326;12.344;2023-10-19T10:00:58;13.90;;;12.30;;
3002;SDS011;1511;51.326;12.344;2023-10-19T10:06:57;15.13;;;13.63;;
3002;SDS011;1511;51.326;12.344;2023-10-19T10:09:19;14.00;;;12.60;;
3002;SDS011;1511;51.326;12.344;2023-10-19T10:11:48;15.30;;;13.80;;
3002;SDS011;1511;51.326;12.344;2023-10-19T10:14:23;15.63;;;14.03;;
3002;SDS011;1511;51.326;12.344;2023-10-19T10:17:03;15.13;;;13.53;;
3002;SDS011;1511;51.326;12.344;2023-10-19T10:19:35;14.53;;;13.13;;
3002;SDS011;1511;51.326;12.344;2023-10-19T10:24:45;18.67;;;16.30;;
3002;SDS011;1511;51.326;12.344;2023-10-19T10:27:15;16.07;;;14.03;;
3002;SDS011;1511;51.326;12.344;2023-10-19T10:29:54;18.17;;;14.73;;
3002;SDS011;1511;51.326;12.344;2023-10-19T10:38:02;16.90;;;15.20;;
3002;SDS011;1511;51.326;12.344;2023-10-19T10:40:42;19.60;;;15.07;;
3002;SDS011;1511;51.326;12.344;2023-10-19T10:43:16;14.87;;;13.37;;
3002;SDS011;1511;51.326;12.344;2023-10-19T10:45:46;16.13;;;14.43;;
3002;SDS011;1511;51.326;12.344;2023-10-19T10:48:13;20.00;;;17.90;;
3002;SDS011;1511;51.326;12.344;2023-10-19T10:50:48;16.53;;;14.73;;
3002;SDS011;1511;51.326;12.344;2023-10-19T10:53:14;17.60;;;14.20;;
3002;SDS011;1511;51.326;12.344;2023-10-19T10:55:43;19.50;;;15.27;;
3002;SDS011;1511;51.326;12.344;2023-10-19T10:58:15;16.03;;;14.33;;
3002;SDS011;1511;51.326;12.344;2023-10-19T11:00:42;17.50;;;14.40;;
3002;SDS011;1511;51.326;12.344;2023-10-19T11:03:11;16.63;;;14.83;;
3002;SDS011;1511;51.326;12.344;2023-10-19T11:05:39;17.07;;;14.40;;
3002;SDS011;1511;51.326;12.344;2023-10-19T11:10:38;16.60;;;14.80;;
3002;SDS011;1511;51.326;12.344;2023-10-19T11:13:10;16.13;;;14.40;;
3002;SDS011;1511;51.326;12.344;2023-10-19T11:15:51;17.53;;;14.07;;
3002;SDS011;1511;51.326;12.344;2023-10-19T11:21:13;18.23;;;14.90;;
3002;SDS011;1511;51.326;12.344;2023-10-19T11:26:18;24.10;;;14.90;;
3002;SDS011;1511;51.326;12.344;2023-10-19T11:28:46;18.90;;;13.63;;
3002;SDS011;1511;51.326;12.344;2023-10-19T11:31:23;15.00;;;13.33;;
3002;SDS011;1511;51.326;12.344;2023-10-19T11:33:50;17.47;;;13.33;;
3002;SDS011;1511;51.326;12.344;2023-10-19T11:36:18;16.40;;;14.80;;
3002;SDS011;1511;51.326;12.344;2023-10-19T11:38:47;15.70;;;14.20;;
3002;SDS011;1511;51.326;12.344;2023-10-19T11:41:16;16.20;;;13.90;;
3002;SDS011;1511;51.326;12.344;2023-10-19T11:43:48;15.80;;;13.43;;
3002;SDS011;1511;51.326;12.344;2023-10-19T11:46:15;15.87;;;14.27;;
3002;SDS011;1511;51.326;12.344;2023-10-19T11:48:51;15.50;;;13.80;;
3002;SDS011;1511;51.326;12.344;2023-10-19T11:51:16;16.80;;;13.90;;
3002;SDS011;1511;51.326;12.344;2023-10-19T11:53:44;16.33;;;14.40;;
3002;SDS011;1511;51.326;12.344;2023-10-19T11:56:13;16.30;;;14.60;;
3002;SDS011;1511;51.326;12.344;2023-10-19T11:58:41;17.77;;;14.47;;
3002;SDS011;1511;51.326;12.344;2023-10-19T12:01:11;16.20;;;14.17;;
3002;SDS011;1511;51.326;12.344;2023-10-19T12:03:40;16.70;;;14.90;;
3002;SDS011;1511;51.326;12.344;2023-10-19T12:06:12;15.17;;;13.57;;
3002;SDS011;1511;51.326;12.344;2023-10-19T12:08:48;16.07;;;13.67;;
3002;SDS011;1511;51.326;12.344;2023-10-19T12:11:16;15.53;;;13.90;;
3002;SDS011;1511;51.326;12.344;2023-10-19T12:13:46;15.93;;;14.33;;
3002;SDS011;1511;51.326;12.344;2023-10-19T12:16:12;15.60;;;13.13;;
3002;SDS011;1511;51.326;12.344;2023-10-19T12:18:43;15.03;;;13.53;;
3002;SDS011;1511;51.326;12.344;2023-10-19T12:21:13;15.23;;;13.57;;
3002;SDS011;1511;51.326;12.344;2023-10-19T12:23:42;14.03;;;12.43;;
3002;SDS011;1511;51.326;12.344;2023-10-19T12:26:16;15.60;;;14.00;;
3002;SDS011;1511;51.326;12.344;2023-10-19T12:28:42;18.97;;;14.10;;
3002;SDS011;1511;51.326;12.344;2023-10-19T12:31:14;16.20;;;14.50;;
3002;SDS011;1511;51.326;12.344;2023-10-19T12:33:40;15.60;;;13.77;;
3002;SDS011;1511;51.326;12.344;2023-10-19T12:36:07;15.47;;;13.80;;
3002;SDS011;1511;51.326;12.344;2023-10-19T12:38:53;15.93;;;14.23;;
3002;SDS011;1511;51.326;12.344;2023-10-19T12:41:20;15.17;;;13.60;;
3002;SDS011;1511;51.326;12.344;2023-10-19T12:43:49;18.40;;;16.50;;
3002;SDS011;1511;51.326;12.344;2023-10-19T12:46:22;14.53;;;13.07;;
3002;SDS011;1511;51.326;12.344;2023-10-19T12:48:50;15.07;;;13.67;;
3002;SDS011;1511;51.326;12.344;2023-10-19T12:51:22;19.60;;;13.20;;
3002;SDS011;1511;51.326;12.344;2023-10-19T12:53:52;13.53;;;12.13;;
3002;SDS011;1511;51.326;12.344;2023-10-19T12:56:20;14.67;;;13.13;;
3002;SDS011;1511;51.326;12.344;2023-10-19T12:58:49;16.23;;;13.97;;
3002;SDS011;1511;51.326;12.344;2023-10-19T13:01:15;15.17;;;13.77;;
3002;SDS011;1511;51.326;12.344;2023-10-19T13:03:42;13.70;;;12.33;;
3002;SDS011;1511;51.326;12.344;2023-10-19T13:06:14;15.03;;;13.27;;
3002;SDS011;1511;51.326;12.344;2023-10-19T13:08:40;13.80;;;12.40;;
3002;SDS011;1511;51.326;12.344;2023-10-19T13:11:07;14.57;;;13.00;;
3002;SDS011;1511;51.326;12.344;2023-10-19T13:13:35;15.33;;;12.97;;
3002;SDS011;1511;51.326;12.344;2023-10-19T13:16:04;14.50;;;12.97;;
3002;SDS011;1511;51.326;12.344;2023-10-19T13:18:31;15.20;;;13.70;;
3002;SDS011;1511;51.326;12.344;2023-10-19T13:21:00;13.97;;;12.47;;
3002;SDS011;1511;51.326;12.344;2023-10-19T13:23:36;16.10;;;14.50;;
3002;SDS011;1511;51.326;12.344;2023-10-19T13:26:02;14.90;;;13.40;;
3002;SDS011;1511;51.326;12.344;2023-10-19T13:28:39;15.83;;;14.23;;
3002;SDS011;1511;51.326;12.344;2023-10-19T13:31:08;16.37;;;14.33;;
3002;SDS011;1511;51.326;12.344;2023-10-19T13:33:38;16.90;;;15.10;;
3002;SDS011;1511;51.326;12.344;2023-10-19T13:36:06;18.33;;;14.10;;
3002;SDS011;1511;51.326;12.344;2023-10-19T13:38:35;17.47;;;15.63;;
3002;SDS011;1511;51.326;12.344;2023-10-19T13:41:04;14.87;;;13.20;;
3002;SDS011;1511;51.326;12.344;2023-10-19T13:43:36;16.87;;;15.13;;
3002;SDS011;1511;51.326;12.344;2023-10-19T13:46:03;16.20;;;14.50;;
3002;SDS011;1511;51.326;12.344;2023-10-19T13:48:31;15.97;;;14.37;;
3002;SDS011;1511;51.326;12.344;2023-10-19T13:50:57;16.47;;;14.67;;
3002;SDS011;1511;51.326;12.344;2023-10-19T13:53:38;18.00;;;14.63;;
3002;SDS011;1511;51.326;12.344;2023-10-19T13:56:09;14.90;;;13.07;;
3002;SDS011;1511;51.326;12.344;2023-10-19T13:58:40;15.13;;;13.70;;
3002;SDS011;1511;51.326;12.344;2023-10-19T14:01:06;14.67;;;13.23;;
3002;SDS011;1511;51.326;12.344;2023-10-19T14:03:34;14.53;;;13.00;;
3002;SDS011;1511;51.326;12.344;2023-10-19T14:06:02;15.80;;;14.37;;
3002;SDS011;1511;51.326;12.344;2023-10-19T14:08:31;14.80;;;13.37;;
3002;SDS011;1511;51.326;12.344;2023-10-19T14:11:01;15.93;;;14.20;;
3002;SDS011;1511;51.326;12.344;2023-10-19T14:13:28;14.77;;;13.33;;
3002;SDS011;1511;51.326;12.344;2023-10-19T14:15:54;15.60;;;14.00;;
3002;SDS011;1511;51.326;12.344;2023-10-19T14:18:22;16.57;;;14.73;;
3002;SDS011;1511;51.326;12.344;2023-10-19T14:20:48;19.40;;;16.63;;
3002;SDS011;1511;51.326;12.344;2023-10-19T14:23:13;20.27;;;17.03;;
3002;SDS011;1511;51.326;12.344;2023-10-19T14:25:42;15.37;;;13.77;;
3002;SDS011;1511;51.326;12.344;2023-10-19T14:28:10;15.90;;;14.20;;
3002;SDS011;1511;51.326;12.344;2023-10-19T14:30:36;15.90;;;14.07;;
3002;SDS011;1511;51.326;12.344;2023-10-19T14:33:02;16.17;;;14.57;;
3002;SDS011;1511;51.326;12.344;2023-10-19T14:35:30;14.43;;;13.03;;
3002;SDS011;1511;51.326;12.344;2023-10-19T14:37:57;15.63;;;13.97;;
3002;SDS011;1511;51.326;12.344;2023-10-19T14:40:26;15.77;;;14.00;;
3002;SDS011;1511;51.326;12.344;2023-10-19T14:42:53;15.43;;;13.97;;
3002;SDS011;1511;51.326;12.344;2023-10-19T14:45:22;17.37;;;15.77;;
3002;SDS011;1511;51.326;12.344;2023-10-19T14:47:56;15.80;;;14.17;;
3002;SDS011;1511;51.326;12.344;2023-10-19T14:50:28;17.40;;;15.60;;
3002;SDS011;1511;51.326;12.344;2023-10-19T14:52:54;19.03;;;15.33;;
3002;SDS011;1511;51.326;12.344;2023-10-19T14:55:22;16.73;;;15.17;;
3002;SDS011;1511;51.326;12.344;2023-10-19T14:57:49;18.27;;;16.40;;
3002;SDS011;1511;51.326;12.344;2023-10-19T15:00:18;23.50;;;20.50;;
3002;SDS011;1511;51.326;12.344;2023-10-19T15:02:59;21.27;;;17.67;;
3002;SDS011;1511;51.326;12.344;2023-10-19T15:05:32;19.93;;;17.93;;
3002;SDS011;1511;51.326;12.344;2023-10-19T15:08:02;20.20;;;17.10;;
3002;SDS011;1511;51.326;12.344;2023-10-19T15:10:31;21.93;;;15.97;;
3002;SDS011;1511;51.326;12.344;2023-10-19T15:13:01;17.50;;;15.70;;